createdAt,value
2023-04-04T00:01:46.998Z,2.55
2023-04-04T00:04:13.975Z,1.95
2023-04-04T00:06:44.437Z,2.08
2023-04-04T00:09:11.706Z,2.20
2023-04-04T00:11:38.881Z,2.00
2023-04-04T00:14:05.657Z,2.13
2023-04-04T00:16:34.089Z,1.60
2023-04-04T00:19:01.038Z,2.03
2023-04-04T00:21:33.899Z,1.80
2023-04-04T00:24:00.709Z,2.05
2023-04-04T00:26:27.513Z,2.20
2023-04-04T00:28:54.260Z,2.00
2023-04-04T00:31:21.221Z,2.38
2023-04-04T00:33:48.283Z,1.90
2023-04-04T00:36:14.993Z,1.75
2023-04-04T00:38:42.114Z,1.92
2023-04-04T00:41:09.298Z,2.17
2023-04-04T00:43:36.187Z,2.10
2023-04-04T00:46:02.952Z,2.30
2023-04-04T00:48:29.903Z,2.00
2023-04-04T00:50:58.214Z,1.98
2023-04-04T00:53:24.868Z,1.90
2023-04-04T00:55:51.538Z,2.33
2023-04-04T00:58:18.242Z,2.03
2023-04-04T01:00:44.880Z,1.95
2023-04-04T01:03:13.950Z,2.45
2023-04-04T01:05:41.220Z,2.20
2023-04-04T01:08:08.315Z,2.10
2023-04-04T01:10:35.804Z,2.50
2023-04-04T01:13:05.759Z,2.55
2023-04-04T01:18:39.422Z,2.30
2023-04-04T01:21:22.994Z,2.22
2023-04-04T01:24:00.382Z,2.25
2023-04-04T01:26:35.076Z,2.50
2023-04-04T01:29:04.216Z,2.13
2023-04-04T01:31:37.138Z,2.03
2023-04-04T01:34:06.927Z,2.28
2023-04-04T01:36:41.855Z,2.03
2023-04-04T01:39:13.436Z,2.10
2023-04-04T01:41:40.904Z,2.40
2023-04-04T01:44:25.646Z,1.92
2023-04-04T01:47:07.129Z,2.03
2023-04-04T01:50:07.929Z,2.00
2023-04-04T01:58:02.530Z,2.00
2023-04-04T02:00:31.608Z,2.22
2023-04-04T02:03:02.690Z,2.03
2023-04-04T02:05:31.482Z,2.00
2023-04-04T02:07:59.358Z,1.98
2023-04-04T02:10:41.920Z,2.22
2023-04-04T02:13:09.677Z,1.70
2023-04-04T02:15:36.803Z,1.83
2023-04-04T02:18:04.457Z,1.80
2023-04-04T02:20:31.248Z,1.70
2023-04-04T02:22:57.810Z,2.38
2023-04-04T02:25:25.431Z,2.63
2023-04-04T02:27:53.028Z,1.95
2023-04-04T02:30:20.736Z,2.08
2023-04-04T02:32:49.045Z,1.77
2023-04-04T02:35:18.596Z,2.13
2023-04-04T02:37:52.401Z,2.05
2023-04-04T02:40:43.267Z,2.38
2023-04-04T02:43:23.871Z,2.10
2023-04-04T02:46:14.393Z,2.35
2023-04-04T02:48:45.732Z,2.30
2023-04-04T02:51:17.128Z,2.15
2023-04-04T02:56:44.997Z,1.77
2023-04-04T02:59:20.506Z,2.30
2023-04-04T03:04:36.652Z,2.17
2023-04-04T03:07:06.016Z,2.38
2023-04-04T03:09:33.087Z,2.22
2023-04-04T03:12:00.833Z,2.35
2023-04-04T03:14:27.434Z,1.95
2023-04-04T03:16:56.254Z,1.95
2023-04-04T03:19:24.353Z,2.03
2023-04-04T03:21:52.323Z,2.80
2023-04-04T03:24:18.997Z,2.38
2023-04-04T03:26:45.679Z,2.15
2023-04-04T03:29:12.839Z,2.10
2023-04-04T03:31:39.705Z,2.60
2023-04-04T03:34:06.294Z,2.00
2023-04-04T03:36:32.979Z,2.08
2023-04-04T03:38:59.946Z,1.98
2023-04-04T03:41:26.537Z,2.35
2023-04-04T03:43:53.796Z,2.15
2023-04-04T03:46:20.436Z,2.38
2023-04-04T03:48:47.472Z,2.15
2023-04-04T03:51:14.207Z,2.10
2023-04-04T03:53:43.463Z,1.90
2023-04-04T03:56:09.907Z,2.28
2023-04-04T03:58:36.716Z,2.53
2023-04-04T04:01:03.508Z,2.25
2023-04-04T04:03:31.688Z,2.13
2023-04-04T04:05:59.369Z,2.28
2023-04-04T04:08:27.746Z,2.13
2023-04-04T04:10:54.617Z,1.83
2023-04-04T04:13:21.793Z,2.03
2023-04-04T04:15:49.362Z,2.05
2023-04-04T04:18:20.686Z,2.53
2023-04-04T04:20:48.300Z,2.30
2023-04-04T04:23:15.188Z,2.17
2023-04-04T04:25:41.721Z,2.55
2023-04-04T04:28:15.707Z,2.42
2023-04-04T04:30:42.479Z,3.08
2023-04-04T04:33:09.812Z,2.33
2023-04-04T04:35:45.351Z,2.33
2023-04-04T04:38:12.039Z,2.30
2023-04-04T04:40:39.965Z,2.42
2023-04-04T04:43:23.522Z,2.60
2023-04-04T04:45:50.820Z,2.40
2023-04-04T04:48:17.865Z,2.60
2023-04-04T04:50:48.831Z,2.28
2023-04-04T04:53:23.074Z,1.95
2023-04-04T04:55:52.294Z,2.72
2023-04-04T04:58:24.454Z,2.58
2023-04-04T05:00:56.586Z,2.85
2023-04-04T05:03:24.290Z,2.95
2023-04-04T05:05:52.052Z,3.58
2023-04-04T05:08:18.881Z,2.70
2023-04-04T05:13:33.020Z,2.55
2023-04-04T05:16:02.789Z,2.60
2023-04-04T05:18:33.714Z,2.50
2023-04-04T05:21:07.040Z,2.67
2023-04-04T05:23:37.199Z,2.47
2023-04-04T05:26:16.925Z,2.30
2023-04-04T05:28:54.936Z,2.60
2023-04-04T05:31:25.174Z,3.00
2023-04-04T05:34:05.965Z,2.58
2023-04-04T05:36:44.541Z,2.60
2023-04-04T05:43:05.207Z,3.17
2023-04-04T05:46:01.631Z,3.40
2023-04-04T05:52:00.819Z,3.38
2023-04-04T05:54:32.114Z,2.45
2023-04-04T06:00:06.695Z,2.90
2023-04-04T06:05:50.565Z,3.22
2023-04-04T06:08:20.766Z,3.25
2023-04-04T06:10:56.978Z,2.90
2023-04-04T06:13:31.497Z,3.53
2023-04-04T06:16:13.978Z,3.10
2023-04-04T06:21:51.277Z,3.63
2023-04-04T06:24:45.336Z,3.97
2023-04-04T06:27:41.973Z,3.95
2023-04-04T06:30:27.165Z,3.90
2023-04-04T06:33:29.126Z,3.75
2023-04-04T06:36:02.985Z,4.47
2023-04-04T06:38:44.358Z,3.70
2023-04-04T06:41:47.588Z,4.10
2023-04-04T06:44:29.531Z,4.03
2023-04-04T06:50:02.418Z,4.25
2023-04-04T06:52:34.959Z,4.18
2023-04-04T06:55:03.222Z,4.40
2023-04-04T06:57:29.805Z,4.07
2023-04-04T06:59:57.041Z,4.00
2023-04-04T07:02:23.634Z,4.95
2023-04-04T07:04:52.099Z,3.92
2023-04-04T07:07:18.573Z,4.20
2023-04-04T07:09:45.121Z,4.43
2023-04-04T07:12:11.602Z,4.35
2023-04-04T07:14:38.305Z,4.30
2023-04-04T07:17:13.722Z,4.38
2023-04-04T07:19:44.054Z,4.20
2023-04-04T07:22:10.751Z,4.18
2023-04-04T07:24:37.380Z,4.35
2023-04-04T07:27:04.116Z,5.05
2023-04-04T07:29:31.308Z,5.53
2023-04-04T07:31:57.791Z,4.38
2023-04-04T07:34:27.064Z,3.92
2023-04-04T07:36:55.417Z,4.70
2023-04-04T07:39:22.253Z,4.25
2023-04-04T07:41:48.983Z,4.32
2023-04-04T07:44:15.823Z,3.90
2023-04-04T07:46:42.730Z,4.30
2023-04-04T07:49:10.118Z,4.65
2023-04-04T07:51:37.070Z,4.00
2023-04-04T07:54:04.309Z,3.78
2023-04-04T07:56:31.042Z,4.13
2023-04-04T07:58:57.663Z,3.70
2023-04-04T08:01:24.177Z,3.35
2023-04-04T08:03:53.756Z,3.15
2023-04-04T08:06:21.059Z,3.90
2023-04-04T08:08:48.121Z,4.20
2023-04-04T08:11:15.090Z,3.92
2023-04-04T08:13:41.777Z,3.10
2023-04-04T08:16:08.519Z,3.20
2023-04-04T08:18:35.730Z,3.35
2023-04-04T08:21:02.108Z,2.92
2023-04-04T08:23:30.580Z,3.22
2023-04-04T08:26:00.136Z,2.85
2023-04-04T08:28:27.921Z,3.05
2023-04-04T08:30:55.124Z,2.83
2023-04-04T08:33:28.965Z,3.05
2023-04-04T08:36:00.920Z,2.83
2023-04-04T08:38:28.260Z,4.45
2023-04-04T08:40:54.894Z,3.97
2023-04-04T08:43:21.581Z,2.75
2023-04-04T08:45:50.644Z,2.90
2023-04-04T08:48:17.853Z,2.08
2023-04-04T08:50:44.883Z,1.90
2023-04-04T08:53:11.945Z,1.95
2023-04-04T08:55:38.869Z,1.77
2023-04-04T08:58:06.283Z,2.08
2023-04-04T09:00:33.184Z,2.25
2023-04-04T09:03:10.469Z,2.55
2023-04-04T09:05:38.808Z,2.00
2023-04-04T09:08:06.051Z,2.17
2023-04-04T09:10:32.944Z,2.05
2023-04-04T09:13:12.383Z,1.63
2023-04-04T09:15:43.669Z,2.00
2023-04-04T09:18:10.374Z,1.77
2023-04-04T09:20:41.198Z,1.88
2023-04-04T09:23:18.111Z,1.85
2023-04-04T09:26:04.353Z,1.73
2023-04-04T09:28:36.804Z,2.05
2023-04-04T09:31:07.460Z,1.70
2023-04-04T09:33:35.838Z,1.75
2023-04-04T09:36:03.717Z,1.40
2023-04-04T09:38:31.413Z,1.60
2023-04-04T09:40:58.401Z,1.98
2023-04-04T09:43:25.703Z,1.88
2023-04-04T09:45:54.854Z,1.40
2023-04-04T09:48:26.095Z,1.55
2023-04-04T09:50:52.775Z,1.50
2023-04-04T09:53:19.310Z,1.38
2023-04-04T09:55:56.151Z,1.90
2023-04-04T09:58:27.024Z,1.60
2023-04-04T10:00:55.343Z,1.60
2023-04-04T10:03:23.220Z,1.95
2023-04-04T10:06:00.515Z,1.75
2023-04-04T10:08:28.634Z,1.30
2023-04-04T10:11:09.646Z,1.50
2023-04-04T10:13:41.923Z,2.10
2023-04-04T10:16:09.128Z,1.63
2023-04-04T10:18:36.719Z,1.40
2023-04-04T10:21:15.226Z,2.20
2023-04-04T10:23:46.432Z,1.70
2023-04-04T10:26:14.146Z,1.60
2023-04-04T10:28:42.440Z,1.40
2023-04-04T10:31:21.590Z,1.50
2023-04-04T10:33:48.433Z,1.55
2023-04-04T10:36:16.833Z,1.20
2023-04-04T10:38:45.218Z,1.33
2023-04-04T10:41:13.793Z,1.52
2023-04-04T10:43:41.923Z,1.50
2023-04-04T10:46:11.770Z,1.48
2023-04-04T10:48:38.756Z,1.70
2023-04-04T10:51:06.374Z,1.75
2023-04-04T10:53:34.536Z,1.40
2023-04-04T10:56:01.910Z,1.80
2023-04-04T10:58:28.542Z,5.50
2023-04-04T11:00:56.122Z,1.88
2023-04-04T11:06:18.358Z,3.13
2023-04-04T11:08:53.806Z,1.50
2023-04-04T11:11:23.120Z,2.40
2023-04-04T11:14:00.818Z,1.58
2023-04-04T11:16:44.121Z,1.50
2023-04-04T11:19:16.818Z,1.50
2023-04-04T11:21:46.146Z,1.40
2023-04-04T11:24:13.592Z,1.27
2023-04-04T11:26:42.770Z,1.50
2023-04-04T11:29:14.223Z,1.48
2023-04-04T11:31:40.965Z,1.65
2023-04-04T11:34:08.009Z,1.45
2023-04-04T11:36:37.659Z,1.40
2023-04-04T11:39:05.747Z,1.08
2023-04-04T11:41:51.255Z,1.20
2023-04-04T11:44:18.290Z,1.42
2023-04-04T11:46:45.036Z,1.15
2023-04-04T11:49:12.158Z,1.27
2023-04-04T11:51:42.198Z,1.70
2023-04-04T11:54:17.852Z,2.50
2023-04-04T11:56:45.319Z,4.15
2023-04-04T11:59:12.560Z,1.10
2023-04-04T12:01:39.699Z,1.60
2023-04-04T12:04:06.347Z,1.35
2023-04-04T12:06:32.809Z,4.57
2023-04-04T12:09:00.385Z,1.98
2023-04-04T12:11:28.715Z,1.30
2023-04-04T12:13:55.595Z,1.00
2023-04-04T12:16:22.574Z,1.25
2023-04-04T12:18:49.444Z,1.27
2023-04-04T12:21:16.613Z,1.20
2023-04-04T12:23:43.100Z,1.25
2023-04-04T12:26:11.322Z,1.20
2023-04-04T12:28:39.856Z,1.10
2023-04-04T12:31:06.803Z,0.95
2023-04-04T12:33:33.900Z,1.20
2023-04-04T12:36:05.425Z,1.40
2023-04-04T12:38:32.333Z,1.50
2023-04-04T12:40:59.081Z,1.50
2023-04-04T12:43:31.950Z,1.40
2023-04-04T12:45:58.596Z,1.50
2023-04-04T12:48:32.504Z,1.02
2023-04-04T12:51:00.310Z,1.45
2023-04-04T12:53:29.797Z,1.02
2023-04-04T12:56:00.018Z,1.40
2023-04-04T12:58:27.166Z,1.15
2023-04-04T13:00:54.678Z,1.23
2023-04-04T13:03:24.896Z,1.40
2023-04-04T13:05:53.062Z,1.30
2023-04-04T13:08:20.845Z,1.50
2023-04-04T13:10:57.264Z,1.30
2023-04-04T13:13:50.351Z,1.23
2023-04-04T13:16:32.298Z,1.40
2023-04-04T13:18:59.592Z,1.40
2023-04-04T13:21:26.245Z,1.23
2023-04-04T13:23:53.032Z,1.20
2023-04-04T13:26:19.554Z,1.42
2023-04-04T13:28:46.220Z,1.20
2023-04-04T13:31:13.360Z,1.20
2023-04-04T13:33:40.258Z,1.20
2023-04-04T13:36:06.781Z,1.13
2023-04-04T13:38:33.335Z,0.95
2023-04-04T13:41:00.669Z,1.20
2023-04-04T13:43:27.405Z,1.08
2023-04-04T13:45:56.309Z,1.15
2023-04-04T13:48:23.015Z,1.10
2023-04-04T13:50:53.211Z,1.15
2023-04-04T13:53:20.664Z,1.15
2023-04-04T13:56:02.194Z,1.17
2023-04-04T13:58:33.680Z,1.20
2023-04-04T14:01:03.058Z,1.17
2023-04-04T14:03:31.067Z,1.35
2023-04-04T14:06:00.343Z,1.45
2023-04-04T14:08:33.115Z,1.20
2023-04-04T14:11:00.688Z,1.13
2023-04-04T14:13:28.441Z,1.13
2023-04-04T14:15:54.878Z,1.05
2023-04-04T14:18:21.678Z,2.05
2023-04-04T14:20:48.094Z,1.60
2023-04-04T14:23:14.820Z,1.25
2023-04-04T14:25:45.145Z,1.23
2023-04-04T14:28:14.759Z,1.50
2023-04-04T14:30:41.392Z,1.23
2023-04-04T14:33:08.159Z,2.20
2023-04-04T14:35:35.828Z,1.30
2023-04-04T14:38:05.576Z,1.15
2023-04-04T14:40:32.550Z,1.10
2023-04-04T14:42:59.198Z,1.00
2023-04-04T14:45:26.129Z,1.20
2023-04-04T14:47:52.790Z,0.90
2023-04-04T14:50:19.262Z,1.00
2023-04-04T14:52:47.801Z,1.02
2023-04-04T14:55:14.282Z,1.17
2023-04-04T14:57:57.123Z,1.00
2023-04-04T15:00:27.741Z,0.85
2023-04-04T15:02:54.293Z,1.80
2023-04-04T15:05:21.088Z,1.50
2023-04-04T15:07:48.222Z,1.58
2023-04-04T15:10:14.759Z,1.10
2023-04-04T15:12:41.526Z,0.90
2023-04-04T15:15:08.381Z,1.10
2023-04-04T15:17:34.985Z,1.00
2023-04-04T15:20:01.421Z,1.00
2023-04-04T15:22:28.029Z,0.93
2023-04-04T15:24:56.313Z,3.40
2023-04-04T15:27:22.809Z,1.58
2023-04-04T15:29:49.438Z,2.50
2023-04-04T15:32:15.989Z,2.33
2023-04-04T15:34:42.524Z,1.25
2023-04-04T15:37:09.767Z,1.23
2023-04-04T15:39:46.056Z,0.80
2023-04-04T15:42:19.239Z,1.00
2023-04-04T15:44:45.785Z,0.80
2023-04-04T15:47:12.395Z,1.20
2023-04-04T15:49:39.324Z,0.75
2023-04-04T15:52:06.123Z,1.33
2023-04-04T15:54:32.892Z,1.67
2023-04-04T15:56:59.653Z,1.10
2023-04-04T15:59:26.524Z,5.05
2023-04-04T16:01:53.228Z,4.60
2023-04-04T16:04:19.798Z,1.17
2023-04-04T16:06:46.297Z,1.23
2023-04-04T16:09:12.752Z,1.48
2023-04-04T16:11:39.904Z,2.90
2023-04-04T16:14:09.228Z,1.95
2023-04-04T16:16:36.639Z,2.42
2023-04-04T16:19:03.548Z,1.00
2023-04-04T16:21:31.057Z,1.33
2023-04-04T16:23:57.732Z,6.05
2023-04-04T16:26:24.375Z,2.90
2023-04-04T16:28:51.097Z,1.75
2023-04-04T16:31:17.550Z,1.83
2023-04-04T16:33:44.310Z,1.45
2023-04-04T16:36:11.032Z,1.65
2023-04-04T16:38:37.715Z,1.42
2023-04-04T16:41:04.888Z,1.23
2023-04-04T16:43:31.796Z,1.25
2023-04-04T16:45:58.560Z,1.15
2023-04-04T16:48:25.074Z,0.93
2023-04-04T16:50:51.677Z,1.15
2023-04-04T16:53:18.210Z,1.13
2023-04-04T16:55:44.643Z,2.63
2023-04-04T16:58:11.331Z,1.65
2023-04-04T17:00:37.924Z,1.05
2023-04-04T17:03:05.064Z,1.17
2023-04-04T17:05:32.282Z,1.20
2023-04-04T17:07:58.881Z,1.58
2023-04-04T17:10:25.308Z,1.30
2023-04-04T17:12:52.881Z,1.15
2023-04-04T17:15:19.457Z,1.00
2023-04-04T17:17:46.067Z,0.88
2023-04-04T17:20:17.710Z,1.20
2023-04-04T17:22:45.434Z,0.80
2023-04-04T17:25:11.966Z,1.38
2023-04-04T17:27:38.968Z,3.00
2023-04-04T17:30:05.765Z,1.70
2023-04-04T17:32:33.359Z,3.38
2023-04-04T17:35:00.354Z,1.20
2023-04-04T17:37:28.892Z,2.75
2023-04-04T17:39:55.604Z,3.53
2023-04-04T17:42:22.109Z,5.43
2023-04-04T17:44:48.927Z,2.60
2023-04-04T17:47:16.318Z,3.28
2023-04-04T17:49:42.891Z,1.88
2023-04-04T17:52:10.121Z,2.40
2023-04-04T17:54:36.592Z,4.50
2023-04-04T17:57:03.595Z,10.48
2023-04-04T17:59:30.268Z,10.18
2023-04-04T18:01:57.063Z,3.28
2023-04-04T18:04:25.447Z,1.70
2023-04-04T18:06:52.369Z,2.10
2023-04-04T18:09:18.859Z,2.55
2023-04-04T18:11:45.654Z,2.42
2023-04-04T18:14:12.534Z,2.45
2023-04-04T18:16:41.053Z,1.85
2023-04-04T18:19:11.653Z,1.90
2023-04-04T18:21:38.766Z,2.50
2023-04-04T18:24:07.428Z,2.53
2023-04-04T18:26:34.992Z,2.55
2023-04-04T18:29:02.076Z,2.58
2023-04-04T18:31:28.572Z,2.30
2023-04-04T18:33:55.742Z,2.05
2023-04-04T18:36:22.768Z,2.22
2023-04-04T18:38:49.737Z,2.22
2023-04-04T18:41:17.467Z,2.30
2023-04-04T18:43:44.239Z,2.97
2023-04-04T18:46:10.838Z,2.78
2023-04-04T18:48:37.340Z,3.40
2023-04-04T18:51:04.895Z,4.22
2023-04-04T18:53:31.591Z,4.60
2023-04-04T18:55:58.355Z,4.05
2023-04-04T18:58:28.176Z,4.53
2023-04-04T19:00:55.967Z,5.03
2023-04-04T19:03:23.145Z,4.90
2023-04-04T19:05:50.144Z,4.32
2023-04-04T19:08:17.516Z,4.68
2023-04-04T19:10:44.996Z,4.90
2023-04-04T19:13:11.821Z,4.93
2023-04-04T19:15:38.498Z,2.70
2023-04-04T19:18:05.562Z,3.13
2023-04-04T19:20:32.244Z,2.70
2023-04-04T19:22:58.781Z,3.78
2023-04-04T19:25:26.203Z,4.68
2023-04-04T19:27:52.793Z,5.10
2023-04-04T19:30:38.222Z,4.95
2023-04-04T19:33:08.829Z,5.18
2023-04-04T19:35:48.878Z,4.95
2023-04-04T19:38:20.484Z,6.03
2023-04-04T19:40:48.291Z,5.63
2023-04-04T19:43:18.366Z,5.93
2023-04-04T19:45:48.970Z,6.30
2023-04-04T19:48:34.290Z,6.35
2023-04-04T19:51:01.694Z,6.20
2023-04-04T19:53:28.449Z,6.45
2023-04-04T19:55:55.005Z,6.50
2023-04-04T19:58:21.737Z,6.93
2023-04-04T20:00:48.137Z,6.60
2023-04-04T20:03:33.889Z,7.32
2023-04-04T20:06:03.564Z,5.70
2023-04-04T20:08:35.589Z,6.10
2023-04-04T20:11:02.148Z,5.90
2023-04-04T20:13:29.742Z,6.20
2023-04-04T20:16:03.934Z,5.72
2023-04-04T20:18:32.205Z,5.23
2023-04-04T20:20:58.752Z,4.53
2023-04-04T20:23:26.221Z,5.10
2023-04-04T20:25:53.696Z,4.90
2023-04-04T20:28:29.241Z,4.53
2023-04-04T20:33:32.804Z,4.10
2023-04-04T20:36:18.148Z,4.00
2023-04-04T20:38:44.676Z,3.70
2023-04-04T20:41:21.634Z,3.72
2023-04-04T20:43:55.000Z,3.40
2023-04-04T20:46:23.065Z,3.03
2023-04-04T20:48:51.068Z,3.10
2023-04-04T20:51:17.559Z,2.92
2023-04-04T20:53:53.709Z,2.95
2023-04-04T20:56:35.273Z,2.90
2023-04-04T20:59:01.829Z,2.85
2023-04-04T21:01:28.492Z,2.88
2023-04-04T21:03:56.595Z,3.00
2023-04-04T21:06:28.246Z,2.85
2023-04-04T21:08:55.509Z,3.03
2023-04-04T21:11:24.042Z,2.80
2023-04-04T21:13:51.026Z,2.53
2023-04-04T21:16:21.092Z,2.63
2023-04-04T21:18:47.852Z,2.75
2023-04-04T21:21:19.714Z,2.85
2023-04-04T21:23:49.302Z,3.20
2023-04-04T21:26:19.234Z,2.92
2023-04-04T21:28:47.152Z,2.70
2023-04-04T21:31:17.365Z,2.80
2023-04-04T21:33:44.782Z,2.60
2023-04-04T21:36:18.349Z,3.03
2023-04-04T21:38:45.081Z,2.42
2023-04-04T21:41:23.827Z,2.92
2023-04-04T21:43:50.900Z,2.97
2023-04-04T21:46:17.444Z,2.80
2023-04-04T21:48:44.218Z,2.60
2023-04-04T21:51:10.766Z,2.63
2023-04-04T21:53:37.285Z,2.33
2023-04-04T21:56:04.027Z,3.03
2023-04-04T21:58:30.811Z,2.47
2023-04-04T22:00:57.494Z,2.65
2023-04-04T22:03:23.974Z,3.20
2023-04-04T22:05:50.738Z,3.85
2023-04-04T22:08:17.262Z,3.70
2023-04-04T22:10:47.593Z,4.10
2023-04-04T22:13:14.836Z,3.60
2023-04-04T22:15:44.149Z,3.70
2023-04-04T22:18:15.137Z,3.58
2023-04-04T22:20:45.669Z,3.65
2023-04-04T22:23:13.231Z,3.63
2023-04-04T22:25:39.885Z,3.63
2023-04-04T22:28:08.490Z,3.65
2023-04-04T22:30:35.893Z,3.33
2023-04-04T22:33:05.427Z,3.55
2023-04-04T22:35:32.671Z,3.75
2023-04-04T22:38:01.007Z,3.63
2023-04-04T22:40:31.002Z,3.60
2023-04-04T22:42:58.254Z,3.30
2023-04-04T22:45:27.996Z,3.83
2023-04-04T22:47:57.607Z,3.70
2023-04-04T22:50:24.547Z,4.03
2023-04-04T22:52:52.423Z,4.20
2023-04-04T22:55:20.544Z,3.78
2023-04-04T22:57:47.576Z,4.07
2023-04-04T23:00:14.731Z,4.07
2023-04-04T23:02:42.522Z,4.45
2023-04-04T23:05:10.094Z,4.40
2023-04-04T23:07:37.402Z,4.47
2023-04-04T23:10:08.434Z,4.97
2023-04-04T23:12:35.957Z,4.90
2023-04-04T23:15:05.993Z,5.22
2023-04-04T23:17:33.379Z,5.15
2023-04-04T23:20:00.499Z,4.80
2023-04-04T23:22:27.757Z,4.70
2023-04-04T23:24:54.670Z,5.00
2023-04-04T23:27:21.246Z,3.53
2023-04-04T23:29:50.539Z,3.47
2023-04-04T23:32:17.048Z,3.50
2023-04-04T23:34:43.596Z,3.70
2023-04-04T23:37:10.552Z,3.78
2023-04-04T23:39:37.181Z,3.83
2023-04-04T23:42:04.366Z,4.78
2023-04-04T23:44:32.597Z,4.88
2023-04-04T23:46:59.231Z,4.75
2023-04-04T23:49:25.863Z,5.32
2023-04-04T23:51:53.459Z,4.47
2023-04-04T23:54:20.038Z,4.90
2023-04-04T23:56:47.080Z,5.35
2023-04-04T23:59:13.585Z,5.80
